sensor_id;sensor_type;location;lat;lon;timestamp;temperature;humidity
18611;DHT22;9435;52.122;5.502;2022-12-07T00:01:16;3.70;99.90
18611;DHT22;9435;52.122;5.502;2022-12-07T00:03:45;3.70;99.90
18611;DHT22;9435;52.122;5.502;2022-12-07T00:06:15;3.70;99.90
18611;DHT22;9435;52.122;5.502;2022-12-07T00:08:42;3.70;99.90
18611;DHT22;9435;52.122;5.502;2022-12-07T00:11:11;3.70;99.90
18611;DHT22;9435;52.122;5.502;2022-12-07T00:13:39;3.70;99.90
18611;DHT22;9435;52.122;5.502;2022-12-07T00:16:08;3.60;99.90
18611;DHT22;9435;52.122;5.502;2022-12-07T00:18:36;3.60;99.90
18611;DHT22;9435;52.122;5.502;2022-12-07T00:21:04;3.60;99.90
18611;DHT22;9435;52.122;5.502;2022-12-07T00:23:33;3.60;99.90
18611;DHT22;9435;52.122;5.502;2022-12-07T00:26:05;3.60;99.90
18611;DHT22;9435;52.122;5.502;2022-12-07T00:28:32;3.50;99.90
18611;DHT22;9435;52.122;5.502;2022-12-07T00:31:04;3.50;99.90
18611;DHT22;9435;52.122;5.502;2022-12-07T00:33:32;3.50;99.90
18611;DHT22;9435;52.122;5.502;2022-12-07T00:36:00;3.40;99.90
18611;DHT22;9435;52.122;5.502;2022-12-07T00:38:28;3.40;99.90
18611;DHT22;9435;52.122;5.502;2022-12-07T00:40:59;3.40;99.90
18611;DHT22;9435;52.122;5.502;2022-12-07T00:43:27;3.40;99.90
18611;DHT22;9435;52.122;5.502;2022-12-07T00:45:54;3.30;99.90
18611;DHT22;9435;52.122;5.502;2022-12-07T00:48:22;3.30;99.90
18611;DHT22;9435;52.122;5.502;2022-12-07T00:50:49;3.30;99.90
18611;DHT22;9435;52.122;5.502;2022-12-07T00:53:17;3.30;99.90
18611;DHT22;9435;52.122;5.502;2022-12-07T00:55:44;3.30;99.90
18611;DHT22;9435;52.122;5.502;2022-12-07T00:58:13;3.30;99.90
18611;DHT22;9435;52.122;5.502;2022-12-07T01:00:42;3.30;99.90
18611;DHT22;9435;52.122;5.502;2022-12-07T01:03:11;3.30;99.90
18611;DHT22;9435;52.122;5.502;2022-12-07T01:05:38;3.20;99.90
18611;DHT22;9435;52.122;5.502;2022-12-07T01:08:06;3.20;99.90
18611;DHT22;9435;52.122;5.502;2022-12-07T01:10:33;3.20;99.90
18611;DHT22;9435;52.122;5.502;2022-12-07T01:13:00;3.20;99.90
18611;DHT22;9435;52.122;5.502;2022-12-07T01:15:28;3.20;99.90
18611;DHT22;9435;52.122;5.502;2022-12-07T01:17:55;3.10;99.90
18611;DHT22;9435;52.122;5.502;2022-12-07T01:20:23;3.20;99.90
18611;DHT22;9435;52.122;5.502;2022-12-07T01:22:50;3.10;99.90
18611;DHT22;9435;52.122;5.502;2022-12-07T01:25:18;3.10;99.90
18611;DHT22;9435;52.122;5.502;2022-12-07T01:27:45;3.10;99.90
18611;DHT22;9435;52.122;5.502;2022-12-07T01:30:13;3.00;99.90
18611;DHT22;9435;52.122;5.502;2022-12-07T01:32:41;2.90;99.90
18611;DHT22;9435;52.122;5.502;2022-12-07T01:35:08;2.90;99.90
18611;DHT22;9435;52.122;5.502;2022-12-07T01:37:36;2.90;99.90
18611;DHT22;9435;52.122;5.502;2022-12-07T01:40:04;2.90;99.90
18611;DHT22;9435;52.122;5.502;2022-12-07T01:42:31;2.90;99.90
18611;DHT22;9435;52.122;5.502;2022-12-07T01:45:31;2.90;99.90
18611;DHT22;9435;52.122;5.502;2022-12-07T01:48:05;2.90;99.90
18611;DHT22;9435;52.122;5.502;2022-12-07T01:50:34;2.80;99.90
18611;DHT22;9435;52.122;5.502;2022-12-07T01:53:03;2.80;99.90
18611;DHT22;9435;52.122;5.502;2022-12-07T01:55:31;2.80;99.90
18611;DHT22;9435;52.122;5.502;2022-12-07T01:57:58;2.80;99.90
18611;DHT22;9435;52.122;5.502;2022-12-07T02:00:25;2.70;99.90
18611;DHT22;9435;52.122;5.502;2022-12-07T02:02:55;2.70;99.90
18611;DHT22;9435;52.122;5.502;2022-12-07T02:05:25;2.70;99.90
18611;DHT22;9435;52.122;5.502;2022-12-07T02:07:55;2.70;99.90
18611;DHT22;9435;52.122;5.502;2022-12-07T02:10:24;2.70;99.90
18611;DHT22;9435;52.122;5.502;2022-12-07T02:12:54;2.70;99.90
18611;DHT22;9435;52.122;5.502;2022-12-07T02:15:24;2.60;99.90
18611;DHT22;9435;52.122;5.502;2022-12-07T02:17:57;2.60;99.90
18611;DHT22;9435;52.122;5.502;2022-12-07T02:20:30;2.60;99.90
18611;DHT22;9435;52.122;5.502;2022-12-07T02:23:38;2.50;99.90
18611;DHT22;9435;52.122;5.502;2022-12-07T02:26:39;2.50;99.90
18611;DHT22;9435;52.122;5.502;2022-12-07T02:29:19;2.60;99.90
18611;DHT22;9435;52.122;5.502;2022-12-07T02:31:55;2.60;99.90
18611;DHT22;9435;52.122;5.502;2022-12-07T02:34:32;2.70;99.90
18611;DHT22;9435;52.122;5.502;2022-12-07T02:37:06;2.70;99.90
18611;DHT22;9435;52.122;5.502;2022-12-07T02:39:41;2.70;99.90
18611;DHT22;9435;52.122;5.502;2022-12-07T02:42:15;2.70;99.90
18611;DHT22;9435;52.122;5.502;2022-12-07T02:44:46;2.60;99.90
18611;DHT22;9435;52.122;5.502;2022-12-07T02:47:16;2.70;99.90
18611;DHT22;9435;52.122;5.502;2022-12-07T02:49:44;2.60;99.90
18611;DHT22;9435;52.122;5.502;2022-12-07T02:52:11;2.70;99.90
18611;DHT22;9435;52.122;5.502;2022-12-07T02:54:38;2.70;99.90
18611;DHT22;9435;52.122;5.502;2022-12-07T02:57:23;2.70;99.90
18611;DHT22;9435;52.122;5.502;2022-12-07T03:00:02;2.70;99.90
18611;DHT22;9435;52.122;5.502;2022-12-07T03:02:38;2.70;99.90
18611;DHT22;9435;52.122;5.502;2022-12-07T03:05:15;2.70;99.90
18611;DHT22;9435;52.122;5.502;2022-12-07T03:07:49;2.70;99.90
18611;DHT22;9435;52.122;5.502;2022-12-07T03:10:24;2.80;99.90
18611;DHT22;9435;52.122;5.502;2022-12-07T03:13:02;2.80;99.90
18611;DHT22;9435;52.122;5.502;2022-12-07T03:15:33;2.80;99.90
18611;DHT22;9435;52.122;5.502;2022-12-07T03:18:03;2.80;99.90
18611;DHT22;9435;52.122;5.502;2022-12-07T03:20:32;2.80;99.90
18611;DHT22;9435;52.122;5.502;2022-12-07T03:23:03;2.90;99.90
18611;DHT22;9435;52.122;5.502;2022-12-07T03:25:32;2.90;99.90
18611;DHT22;9435;52.122;5.502;2022-12-07T03:28:02;2.90;99.90
18611;DHT22;9435;52.122;5.502;2022-12-07T03:30:38;2.90;99.90
18611;DHT22;9435;52.122;5.502;2022-12-07T03:33:08;2.90;99.90
18611;DHT22;9435;52.122;5.502;2022-12-07T03:35:39;2.90;99.90
18611;DHT22;9435;52.122;5.502;2022-12-07T03:38:13;2.90;99.90
18611;DHT22;9435;52.122;5.502;2022-12-07T03:40:46;2.90;99.90
18611;DHT22;9435;52.122;5.502;2022-12-07T03:43:17;2.90;99.90
18611;DHT22;9435;52.122;5.502;2022-12-07T03:45:56;2.90;99.90
18611;DHT22;9435;52.122;5.502;2022-12-07T03:48:30;2.80;99.90
18611;DHT22;9435;52.122;5.502;2022-12-07T03:51:04;2.80;99.90
18611;DHT22;9435;52.122;5.502;2022-12-07T03:53:36;2.80;99.90
18611;DHT22;9435;52.122;5.502;2022-12-07T03:56:07;2.80;99.90
18611;DHT22;9435;52.122;5.502;2022-12-07T03:58:35;2.70;99.90
18611;DHT22;9435;52.122;5.502;2022-12-07T04:01:05;2.70;99.90
18611;DHT22;9435;52.122;5.502;2022-12-07T04:03:32;2.70;99.90
18611;DHT22;9435;52.122;5.502;2022-12-07T04:05:59;2.70;99.90
18611;DHT22;9435;52.122;5.502;2022-12-07T04:08:26;2.70;99.90
18611;DHT22;9435;52.122;5.502;2022-12-07T04:10:53;2.70;99.90
18611;DHT22;9435;52.122;5.502;2022-12-07T04:13:20;2.70;99.90
18611;DHT22;9435;52.122;5.502;2022-12-07T04:15:47;2.70;99.90
18611;DHT22;9435;52.122;5.502;2022-12-07T04:18:16;2.80;99.90
18611;DHT22;9435;52.122;5.502;2022-12-07T04:20:43;2.80;99.90
18611;DHT22;9435;52.122;5.502;2022-12-07T04:23:10;2.80;99.90
18611;DHT22;9435;52.122;5.502;2022-12-07T04:25:37;2.80;99.90
18611;DHT22;9435;52.122;5.502;2022-12-07T04:28:04;2.90;99.90
18611;DHT22;9435;52.122;5.502;2022-12-07T04:30:31;2.90;99.90
18611;DHT22;9435;52.122;5.502;2022-12-07T04:32:58;2.90;99.90
18611;DHT22;9435;52.122;5.502;2022-12-07T04:35:26;2.90;99.90
18611;DHT22;9435;52.122;5.502;2022-12-07T04:37:53;3.00;99.90
18611;DHT22;9435;52.122;5.502;2022-12-07T04:40:21;2.90;99.90
18611;DHT22;9435;52.122;5.502;2022-12-07T04:42:48;2.90;99.90
18611;DHT22;9435;52.122;5.502;2022-12-07T04:45:15;2.90;99.90
18611;DHT22;9435;52.122;5.502;2022-12-07T04:47:42;2.80;99.90
18611;DHT22;9435;52.122;5.502;2022-12-07T04:50:10;2.80;99.90
18611;DHT22;9435;52.122;5.502;2022-12-07T04:52:38;2.90;99.90
18611;DHT22;9435;52.122;5.502;2022-12-07T04:55:06;2.90;99.90
18611;DHT22;9435;52.122;5.502;2022-12-07T04:57:33;2.90;99.90
18611;DHT22;9435;52.122;5.502;2022-12-07T05:00:00;2.90;99.90
18611;DHT22;9435;52.122;5.502;2022-12-07T05:02:27;2.90;99.90
18611;DHT22;9435;52.122;5.502;2022-12-07T05:04:54;3.00;99.90
18611;DHT22;9435;52.122;5.502;2022-12-07T05:07:21;3.00;99.90
18611;DHT22;9435;52.122;5.502;2022-12-07T05:09:50;3.00;99.90
18611;DHT22;9435;52.122;5.502;2022-12-07T05:12:17;3.00;99.90
18611;DHT22;9435;52.122;5.502;2022-12-07T05:14:44;3.00;99.90
18611;DHT22;9435;52.122;5.502;2022-12-07T05:17:11;3.00;99.90
18611;DHT22;9435;52.122;5.502;2022-12-07T05:19:38;2.90;99.90
18611;DHT22;9435;52.122;5.502;2022-12-07T05:22:05;2.90;99.90
18611;DHT22;9435;52.122;5.502;2022-12-07T05:24:32;2.90;99.90
18611;DHT22;9435;52.122;5.502;2022-12-07T05:27:00;2.90;99.90
18611;DHT22;9435;52.122;5.502;2022-12-07T05:29:27;2.80;99.90
18611;DHT22;9435;52.122;5.502;2022-12-07T05:31:54;2.80;99.90
18611;DHT22;9435;52.122;5.502;2022-12-07T05:34:21;2.80;99.90
18611;DHT22;9435;52.122;5.502;2022-12-07T05:36:48;2.70;99.90
18611;DHT22;9435;52.122;5.502;2022-12-07T05:39:16;2.70;99.90
18611;DHT22;9435;52.122;5.502;2022-12-07T05:41:43;2.70;99.90
18611;DHT22;9435;52.122;5.502;2022-12-07T05:44:28;2.60;99.90
18611;DHT22;9435;52.122;5.502;2022-12-07T05:46:55;2.60;99.90
18611;DHT22;9435;52.122;5.502;2022-12-07T05:49:22;2.50;99.90
18611;DHT22;9435;52.122;5.502;2022-12-07T05:51:49;2.50;99.90
18611;DHT22;9435;52.122;5.502;2022-12-07T05:54:17;2.50;99.90
18611;DHT22;9435;52.122;5.502;2022-12-07T05:56:44;2.50;99.90
18611;DHT22;9435;52.122;5.502;2022-12-07T05:59:11;2.40;99.90
18611;DHT22;9435;52.122;5.502;2022-12-07T06:01:51;2.40;99.90
18611;DHT22;9435;52.122;5.502;2022-12-07T06:04:18;2.40;99.90
18611;DHT22;9435;52.122;5.502;2022-12-07T06:06:46;2.40;99.90
18611;DHT22;9435;52.122;5.502;2022-12-07T06:09:14;2.30;99.90
18611;DHT22;9435;52.122;5.502;2022-12-07T06:11:41;2.40;99.90
18611;DHT22;9435;52.122;5.502;2022-12-07T06:14:26;2.30;99.90
18611;DHT22;9435;52.122;5.502;2022-12-07T06:16:54;2.40;99.90
18611;DHT22;9435;52.122;5.502;2022-12-07T06:19:21;2.30;99.90
18611;DHT22;9435;52.122;5.502;2022-12-07T06:21:48;2.40;99.90
18611;DHT22;9435;52.122;5.502;2022-12-07T06:24:17;2.30;99.90
18611;DHT22;9435;52.122;5.502;2022-12-07T06:26:44;2.40;99.90
18611;DHT22;9435;52.122;5.502;2022-12-07T06:29:12;2.40;99.90
18611;DHT22;9435;52.122;5.502;2022-12-07T06:31:39;2.40;99.90
18611;DHT22;9435;52.122;5.502;2022-12-07T06:34:10;2.40;99.90
18611;DHT22;9435;52.122;5.502;2022-12-07T06:36:38;2.40;99.90
18611;DHT22;9435;52.122;5.502;2022-12-07T06:39:05;2.40;99.90
18611;DHT22;9435;52.122;5.502;2022-12-07T06:41:33;2.40;99.90
18611;DHT22;9435;52.122;5.502;2022-12-07T06:44:00;2.40;99.90
18611;DHT22;9435;52.122;5.502;2022-12-07T06:46:27;2.40;99.90
18611;DHT22;9435;52.122;5.502;2022-12-07T06:48:54;2.50;99.90
18611;DHT22;9435;52.122;5.502;2022-12-07T06:51:22;2.50;99.90
18611;DHT22;9435;52.122;5.502;2022-12-07T06:53:49;2.50;99.90
18611;DHT22;9435;52.122;5.502;2022-12-07T06:56:16;2.60;99.90
18611;DHT22;9435;52.122;5.502;2022-12-07T06:58:44;2.60;99.90
18611;DHT22;9435;52.122;5.502;2022-12-07T07:01:12;2.60;99.90
18611;DHT22;9435;52.122;5.502;2022-12-07T07:03:39;2.50;99.90
18611;DHT22;9435;52.122;5.502;2022-12-07T07:06:07;2.50;99.90
18611;DHT22;9435;52.122;5.502;2022-12-07T07:08:36;2.50;99.90
18611;DHT22;9435;52.122;5.502;2022-12-07T07:11:03;2.50;99.90
18611;DHT22;9435;52.122;5.502;2022-12-07T07:13:30;2.50;99.90
18611;DHT22;9435;52.122;5.502;2022-12-07T07:15:58;2.50;99.90
18611;DHT22;9435;52.122;5.502;2022-12-07T07:18:25;2.50;99.90
18611;DHT22;9435;52.122;5.502;2022-12-07T07:20:52;2.50;99.90
18611;DHT22;9435;52.122;5.502;2022-12-07T07:23:20;2.50;99.90
18611;DHT22;9435;52.122;5.502;2022-12-07T07:25:49;2.50;99.90
18611;DHT22;9435;52.122;5.502;2022-12-07T07:28:16;2.50;99.90
18611;DHT22;9435;52.122;5.502;2022-12-07T07:30:43;2.40;99.90
18611;DHT22;9435;52.122;5.502;2022-12-07T07:33:11;2.40;99.90
18611;DHT22;9435;52.122;5.502;2022-12-07T07:35:38;2.30;99.90
18611;DHT22;9435;52.122;5.502;2022-12-07T07:38:06;2.30;99.90
18611;DHT22;9435;52.122;5.502;2022-12-07T07:40:33;2.30;99.90
18611;DHT22;9435;52.122;5.502;2022-12-07T07:43:01;2.30;99.90
18611;DHT22;9435;52.122;5.502;2022-12-07T07:45:29;2.30;99.90
18611;DHT22;9435;52.122;5.502;2022-12-07T07:47:56;2.20;99.90
18611;DHT22;9435;52.122;5.502;2022-12-07T07:50:23;2.20;99.90
18611;DHT22;9435;52.122;5.502;2022-12-07T07:52:50;2.20;99.90
18611;DHT22;9435;52.122;5.502;2022-12-07T07:55:18;2.10;99.90
18611;DHT22;9435;52.122;5.502;2022-12-07T07:57:45;2.20;99.90
18611;DHT22;9435;52.122;5.502;2022-12-07T08:00:15;2.10;99.90
18611;DHT22;9435;52.122;5.502;2022-12-07T08:02:43;2.20;99.90
18611;DHT22;9435;52.122;5.502;2022-12-07T08:05:11;2.20;99.90
18611;DHT22;9435;52.122;5.502;2022-12-07T08:07:38;2.30;99.90
18611;DHT22;9435;52.122;5.502;2022-12-07T08:10:07;2.30;99.90
18611;DHT22;9435;52.122;5.502;2022-12-07T08:12:36;2.30;99.90
18611;DHT22;9435;52.122;5.502;2022-12-07T08:15:27;2.30;99.90
18611;DHT22;9435;52.122;5.502;2022-12-07T08:17:54;2.40;99.90
18611;DHT22;9435;52.122;5.502;2022-12-07T08:20:22;2.40;99.90
18611;DHT22;9435;52.122;5.502;2022-12-07T08:22:49;2.40;99.90
18611;DHT22;9435;52.122;5.502;2022-12-07T08:25:16;2.50;99.90
18611;DHT22;9435;52.122;5.502;2022-12-07T08:27:43;2.50;99.90
18611;DHT22;9435;52.122;5.502;2022-12-07T08:30:10;2.60;99.90
18611;DHT22;9435;52.122;5.502;2022-12-07T08:32:39;2.60;99.90
18611;DHT22;9435;52.122;5.502;2022-12-07T08:35:07;2.60;99.90
18611;DHT22;9435;52.122;5.502;2022-12-07T08:37:35;2.70;99.90
18611;DHT22;9435;52.122;5.502;2022-12-07T08:40:03;2.70;99.90
18611;DHT22;9435;52.122;5.502;2022-12-07T08:42:30;2.80;99.90
18611;DHT22;9435;52.122;5.502;2022-12-07T08:45:04;2.80;99.90
18611;DHT22;9435;52.122;5.502;2022-12-07T08:47:32;2.80;99.90
18611;DHT22;9435;52.122;5.502;2022-12-07T08:50:02;2.90;99.90
18611;DHT22;9435;52.122;5.502;2022-12-07T08:52:29;3.00;99.90
18611;DHT22;9435;52.122;5.502;2022-12-07T08:54:58;3.00;99.90
18611;DHT22;9435;52.122;5.502;2022-12-07T08:57:26;3.00;99.90
18611;DHT22;9435;52.122;5.502;2022-12-07T08:59:54;3.10;99.90
18611;DHT22;9435;52.122;5.502;2022-12-07T09:02:21;3.00;99.90
18611;DHT22;9435;52.122;5.502;2022-12-07T09:04:48;3.00;99.90
18611;DHT22;9435;52.122;5.502;2022-12-07T09:07:16;3.00;99.90
18611;DHT22;9435;52.122;5.502;2022-12-07T09:09:44;3.00;99.90
18611;DHT22;9435;52.122;5.502;2022-12-07T09:12:11;3.00;99.90
18611;DHT22;9435;52.122;5.502;2022-12-07T09:14:38;3.00;99.90
18611;DHT22;9435;52.122;5.502;2022-12-07T09:17:06;3.00;99.90
18611;DHT22;9435;52.122;5.502;2022-12-07T09:19:33;3.00;99.90
18611;DHT22;9435;52.122;5.502;2022-12-07T09:22:01;3.00;99.90
18611;DHT22;9435;52.122;5.502;2022-12-07T09:24:30;3.10;99.90
18611;DHT22;9435;52.122;5.502;2022-12-07T09:26:57;3.10;99.90
18611;DHT22;9435;52.122;5.502;2022-12-07T09:29:24;3.20;99.90
18611;DHT22;9435;52.122;5.502;2022-12-07T09:31:51;3.30;99.90
18611;DHT22;9435;52.122;5.502;2022-12-07T09:34:18;3.50;99.90
18611;DHT22;9435;52.122;5.502;2022-12-07T09:36:45;3.60;99.90
18611;DHT22;9435;52.122;5.502;2022-12-07T09:39:12;3.70;99.90
18611;DHT22;9435;52.122;5.502;2022-12-07T09:41:43;3.80;99.90
18611;DHT22;9435;52.122;5.502;2022-12-07T09:44:13;3.90;99.90
18611;DHT22;9435;52.122;5.502;2022-12-07T09:46:42;3.90;99.90
18611;DHT22;9435;52.122;5.502;2022-12-07T09:49:12;3.90;99.90
18611;DHT22;9435;52.122;5.502;2022-12-07T09:51:41;3.90;99.90
18611;DHT22;9435;52.122;5.502;2022-12-07T09:54:09;3.90;99.90
18611;DHT22;9435;52.122;5.502;2022-12-07T09:56:40;3.90;99.90
18611;DHT22;9435;52.122;5.502;2022-12-07T09:59:13;4.00;99.90
18611;DHT22;9435;52.122;5.502;2022-12-07T10:01:42;4.00;99.90
18611;DHT22;9435;52.122;5.502;2022-12-07T10:04:13;4.10;99.90
18611;DHT22;9435;52.122;5.502;2022-12-07T10:06:41;4.10;99.90
18611;DHT22;9435;52.122;5.502;2022-12-07T10:09:11;4.10;99.90
18611;DHT22;9435;52.122;5.502;2022-12-07T10:12:03;4.20;99.90
18611;DHT22;9435;52.122;5.502;2022-12-07T10:14:33;4.10;99.90
18611;DHT22;9435;52.122;5.502;2022-12-07T10:17:00;4.20;99.90
18611;DHT22;9435;52.122;5.502;2022-12-07T10:19:29;4.10;99.90
18611;DHT22;9435;52.122;5.502;2022-12-07T10:22:11;4.10;99.90
18611;DHT22;9435;52.122;5.502;2022-12-07T10:24:39;4.20;99.90
18611;DHT22;9435;52.122;5.502;2022-12-07T10:27:19;4.30;99.90
18611;DHT22;9435;52.122;5.502;2022-12-07T10:29:51;4.40;99.90
18611;DHT22;9435;52.122;5.502;2022-12-07T10:32:30;4.50;99.90
18611;DHT22;9435;52.122;5.502;2022-12-07T10:35:22;4.60;99.90
18611;DHT22;9435;52.122;5.502;2022-12-07T10:37:51;4.60;99.90
18611;DHT22;9435;52.122;5.502;2022-12-07T10:40:28;4.70;99.90
18611;DHT22;9435;52.122;5.502;2022-12-07T10:43:18;4.70;99.90
18611;DHT22;9435;52.122;5.502;2022-12-07T10:48:54;4.70;99.90
18611;DHT22;9435;52.122;5.502;2022-12-07T10:51:30;4.80;99.90
18611;DHT22;9435;52.122;5.502;2022-12-07T10:54:08;4.80;99.90
18611;DHT22;9435;52.122;5.502;2022-12-07T10:57:09;4.90;99.90
18611;DHT22;9435;52.122;5.502;2022-12-07T10:59:57;5.00;99.90
18611;DHT22;9435;52.122;5.502;2022-12-07T11:02:43;5.10;99.90
18611;DHT22;9435;52.122;5.502;2022-12-07T11:05:19;5.10;99.90
18611;DHT22;9435;52.122;5.502;2022-12-07T11:07:59;5.10;99.90
18611;DHT22;9435;52.122;5.502;2022-12-07T11:10:36;5.20;99.90
18611;DHT22;9435;52.122;5.502;2022-12-07T11:13:22;5.30;99.90
18611;DHT22;9435;52.122;5.502;2022-12-07T11:18:51;5.60;99.90
18611;DHT22;9435;52.122;5.502;2022-12-07T11:21:26;5.70;99.90
18611;DHT22;9435;52.122;5.502;2022-12-07T11:24:00;5.70;99.90
18611;DHT22;9435;52.122;5.502;2022-12-07T11:26:41;5.70;99.90
18611;DHT22;9435;52.122;5.502;2022-12-07T11:29:35;5.70;99.90
18611;DHT22;9435;52.122;5.502;2022-12-07T11:32:15;5.70;99.90
18611;DHT22;9435;52.122;5.502;2022-12-07T11:34:52;5.60;99.90
18611;DHT22;9435;52.122;5.502;2022-12-07T11:37:28;5.60;99.90
18611;DHT22;9435;52.122;5.502;2022-12-07T11:40:00;5.50;99.90
18611;DHT22;9435;52.122;5.502;2022-12-07T11:42:33;5.40;99.90
18611;DHT22;9435;52.122;5.502;2022-12-07T11:45:10;5.40;99.90
18611;DHT22;9435;52.122;5.502;2022-12-07T11:47:46;5.30;99.90
18611;DHT22;9435;52.122;5.502;2022-12-07T11:50:27;5.30;99.90
18611;DHT22;9435;52.122;5.502;2022-12-07T11:52:57;5.40;99.90
18611;DHT22;9435;52.122;5.502;2022-12-07T11:55:29;5.40;99.90
18611;DHT22;9435;52.122;5.502;2022-12-07T11:58:04;5.40;99.90
18611;DHT22;9435;52.122;5.502;2022-12-07T12:00:33;5.50;99.90
18611;DHT22;9435;52.122;5.502;2022-12-07T12:03:08;5.60;99.90
18611;DHT22;9435;52.122;5.502;2022-12-07T12:05:39;5.60;99.90
18611;DHT22;9435;52.122;5.502;2022-12-07T12:08:13;5.70;99.90
18611;DHT22;9435;52.122;5.502;2022-12-07T12:10:54;5.70;99.90
18611;DHT22;9435;52.122;5.502;2022-12-07T12:16:54;5.70;99.90
18611;DHT22;9435;52.122;5.502;2022-12-07T12:19:32;5.80;99.90
18611;DHT22;9435;52.122;5.502;2022-12-07T12:22:06;5.80;99.90
18611;DHT22;9435;52.122;5.502;2022-12-07T12:24:38;5.80;99.90
18611;DHT22;9435;52.122;5.502;2022-12-07T12:27:09;5.80;99.90
18611;DHT22;9435;52.122;5.502;2022-12-07T12:29:42;5.90;99.90
18611;DHT22;9435;52.122;5.502;2022-12-07T12:32:16;5.90;99.90
18611;DHT22;9435;52.122;5.502;2022-12-07T12:35:01;5.90;99.90
18611;DHT22;9435;52.122;5.502;2022-12-07T12:37:44;5.90;99.90
18611;DHT22;9435;52.122;5.502;2022-12-07T12:40:39;5.90;99.90
18611;DHT22;9435;52.122;5.502;2022-12-07T12:43:42;5.90;99.90
18611;DHT22;9435;52.122;5.502;2022-12-07T12:49:39;5.90;99.90
18611;DHT22;9435;52.122;5.502;2022-12-07T12:55:20;6.10;99.90
18611;DHT22;9435;52.122;5.502;2022-12-07T13:03:55;6.30;99.90
18611;DHT22;9435;52.122;5.502;2022-12-07T13:06:34;6.30;99.90
18611;DHT22;9435;52.122;5.502;2022-12-07T13:09:02;6.30;99.90
18611;DHT22;9435;52.122;5.502;2022-12-07T13:11:34;6.30;99.90
18611;DHT22;9435;52.122;5.502;2022-12-07T13:20:45;6.20;99.90
18611;DHT22;9435;52.122;5.502;2022-12-07T13:23:15;6.00;99.90
18611;DHT22;9435;52.122;5.502;2022-12-07T13:26:00;5.90;99.90
18611;DHT22;9435;52.122;5.502;2022-12-07T13:28:36;5.80;99.90
18611;DHT22;9435;52.122;5.502;2022-12-07T13:31:18;5.70;99.90
18611;DHT22;9435;52.122;5.502;2022-12-07T13:33:47;5.60;99.90
18611;DHT22;9435;52.122;5.502;2022-12-07T13:36:20;5.50;99.90
18611;DHT22;9435;52.122;5.502;2022-12-07T13:38:55;5.40;99.90
18611;DHT22;9435;52.122;5.502;2022-12-07T13:41:24;5.40;99.90
18611;DHT22;9435;52.122;5.502;2022-12-07T13:44:00;5.30;99.90
18611;DHT22;9435;52.122;5.502;2022-12-07T13:46:37;5.30;99.90
18611;DHT22;9435;52.122;5.502;2022-12-07T13:49:17;5.20;99.90
18611;DHT22;9435;52.122;5.502;2022-12-07T13:51:45;5.20;99.90
18611;DHT22;9435;52.122;5.502;2022-12-07T13:54:13;5.30;99.90
18611;DHT22;9435;52.122;5.502;2022-12-07T13:56:40;5.30;99.90
18611;DHT22;9435;52.122;5.502;2022-12-07T13:59:13;5.30;99.90
18611;DHT22;9435;52.122;5.502;2022-12-07T14:01:41;5.30;99.90
18611;DHT22;9435;52.122;5.502;2022-12-07T14:04:26;5.30;99.90
18611;DHT22;9435;52.122;5.502;2022-12-07T14:06:54;5.30;99.90
18611;DHT22;9435;52.122;5.502;2022-12-07T14:09:22;5.30;99.90
18611;DHT22;9435;52.122;5.502;2022-12-07T14:11:51;5.40;99.90
18611;DHT22;9435;52.122;5.502;2022-12-07T14:14:22;5.30;99.90
18611;DHT22;9435;52.122;5.502;2022-12-07T14:17:00;5.30;99.90
18611;DHT22;9435;52.122;5.502;2022-12-07T14:19:48;5.40;99.90
18611;DHT22;9435;52.122;5.502;2022-12-07T14:22:23;5.40;99.90
18611;DHT22;9435;52.122;5.502;2022-12-07T14:24:51;5.40;99.90
18611;DHT22;9435;52.122;5.502;2022-12-07T14:27:24;5.40;99.90
18611;DHT22;9435;52.122;5.502;2022-12-07T14:30:00;5.50;99.90
18611;DHT22;9435;52.122;5.502;2022-12-07T14:32:29;5.50;99.90
18611;DHT22;9435;52.122;5.502;2022-12-07T14:35:01;5.40;99.90
18611;DHT22;9435;52.122;5.502;2022-12-07T14:37:29;5.50;99.90
18611;DHT22;9435;52.122;5.502;2022-12-07T14:39:57;5.50;99.90
18611;DHT22;9435;52.122;5.502;2022-12-07T14:42:27;5.40;99.90
18611;DHT22;9435;52.122;5.502;2022-12-07T14:44:55;5.50;99.90
18611;DHT22;9435;52.122;5.502;2022-12-07T14:47:25;5.40;99.90
18611;DHT22;9435;52.122;5.502;2022-12-07T14:49:52;5.40;99.90
18611;DHT22;9435;52.122;5.502;2022-12-07T14:52:21;5.40;99.90
18611;DHT22;9435;52.122;5.502;2022-12-07T14:54:49;5.40;99.90
18611;DHT22;9435;52.122;5.502;2022-12-07T14:57:16;5.40;99.90
18611;DHT22;9435;52.122;5.502;2022-12-07T14:59:43;5.30;99.90
18611;DHT22;9435;52.122;5.502;2022-12-07T15:02:12;5.30;99.90
18611;DHT22;9435;52.122;5.502;2022-12-07T15:04:41;5.30;99.90
18611;DHT22;9435;52.122;5.502;2022-12-07T15:07:13;5.30;99.90
18611;DHT22;9435;52.122;5.502;2022-12-07T15:09:41;5.20;99.90
18611;DHT22;9435;52.122;5.502;2022-12-07T15:12:08;5.20;99.90
18611;DHT22;9435;52.122;5.502;2022-12-07T15:14:35;5.20;99.90
18611;DHT22;9435;52.122;5.502;2022-12-07T15:17:03;5.20;99.90
18611;DHT22;9435;52.122;5.502;2022-12-07T15:19:30;5.20;99.90
18611;DHT22;9435;52.122;5.502;2022-12-07T15:21:59;5.20;99.90
18611;DHT22;9435;52.122;5.502;2022-12-07T15:24:27;5.20;99.90
18611;DHT22;9435;52.122;5.502;2022-12-07T15:26:55;5.20;99.90
18611;DHT22;9435;52.122;5.502;2022-12-07T15:29:22;5.20;99.90
18611;DHT22;9435;52.122;5.502;2022-12-07T15:31:50;5.20;99.90
18611;DHT22;9435;52.122;5.502;2022-12-07T15:34:17;5.10;99.90
18611;DHT22;9435;52.122;5.502;2022-12-07T15:36:44;5.10;99.90
18611;DHT22;9435;52.122;5.502;2022-12-07T15:39:13;5.10;99.90
18611;DHT22;9435;52.122;5.502;2022-12-07T15:41:40;5.10;99.90
18611;DHT22;9435;52.122;5.502;2022-12-07T15:44:09;5.00;99.90
18611;DHT22;9435;52.122;5.502;2022-12-07T15:46:54;4.90;99.90
18611;DHT22;9435;52.122;5.502;2022-12-07T15:49:21;4.90;99.90
18611;DHT22;9435;52.122;5.502;2022-12-07T15:51:48;4.80;99.90
18611;DHT22;9435;52.122;5.502;2022-12-07T15:54:19;4.80;99.90
18611;DHT22;9435;52.122;5.502;2022-12-07T15:56:47;4.80;99.90
18611;DHT22;9435;52.122;5.502;2022-12-07T15:59:14;4.80;99.90
18611;DHT22;9435;52.122;5.502;2022-12-07T16:01:41;4.80;99.90
18611;DHT22;9435;52.122;5.502;2022-12-07T16:04:09;4.70;99.90
18611;DHT22;9435;52.122;5.502;2022-12-07T16:06:36;4.60;99.90
18611;DHT22;9435;52.122;5.502;2022-12-07T16:09:04;4.60;99.90
18611;DHT22;9435;52.122;5.502;2022-12-07T16:11:32;4.60;99.90
18611;DHT22;9435;52.122;5.502;2022-12-07T16:13:59;4.60;99.90
18611;DHT22;9435;52.122;5.502;2022-12-07T16:16:27;4.60;99.90
18611;DHT22;9435;52.122;5.502;2022-12-07T16:18:54;4.60;99.90
18611;DHT22;9435;52.122;5.502;2022-12-07T16:21:21;4.60;99.90
18611;DHT22;9435;52.122;5.502;2022-12-07T16:23:48;4.60;99.90
18611;DHT22;9435;52.122;5.502;2022-12-07T16:26:17;4.50;99.90
18611;DHT22;9435;52.122;5.502;2022-12-07T16:28:48;4.60;99.90
18611;DHT22;9435;52.122;5.502;2022-12-07T16:31:18;4.60;99.90
18611;DHT22;9435;52.122;5.502;2022-12-07T16:33:46;4.50;99.90
18611;DHT22;9435;52.122;5.502;2022-12-07T16:36:13;4.40;99.90
18611;DHT22;9435;52.122;5.502;2022-12-07T16:38:42;4.40;99.90
18611;DHT22;9435;52.122;5.502;2022-12-07T16:41:10;4.40;99.90
18611;DHT22;9435;52.122;5.502;2022-12-07T16:43:38;4.40;99.90
18611;DHT22;9435;52.122;5.502;2022-12-07T16:46:06;4.40;99.90
18611;DHT22;9435;52.122;5.502;2022-12-07T16:48:35;4.30;99.90
18611;DHT22;9435;52.122;5.502;2022-12-07T16:51:04;4.30;99.90
18611;DHT22;9435;52.122;5.502;2022-12-07T16:53:31;4.30;99.90